Time;durP1;ratioP1;P1;durP2;ratioP2;P2;SDS_P1;SDS_P2;PMS_P1;PMS_P2;Temp;Humidity;BMP_temperature;BMP_pressure;BME280_temperature;BME280_humidity;BME280_pressure;Samples;Min_cycle;Max_cycle;Signal;HPM_P1;HPM_P2
2021/05/06 00:06:59;;;;;;;1.35;0.70;;;;;;;10.67;50.53;99265.66;4223345;33;34658;-92
2021/05/06 00:30:13;;;;;;;3.28;0.70;;;;;;;11.01;50.11;99291.81;4178831;34;33710;-89
2021/05/06 00:33:01;;;;;;;2.47;0.90;;;;;;;11.13;49.50;99294.78;4161646;34;35228;-94
2021/05/06 00:35:36;;;;;;;3.10;0.90;;;;;;;10.94;50.51;99307.16;4149267;34;35156;-93
2021/05/06 00:38:26;;;;;;;0.77;0.70;;;;;;;10.71;50.17;99304.78;4166617;34;36100;-93
2021/05/06 01:10:57;;;;;;;2.15;1.10;;;;;;;10.78;55.97;99362.41;4234109;33;35580;-89
2021/05/06 01:13:32;;;;;;;4.37;1.23;;;;;;;10.21;57.52;99365.06;4245862;33;34310;-95
2021/05/06 01:16:17;;;;;;;1.37;0.98;;;;;;;10.59;57.23;99345.03;4204181;34;33564;-88
2021/05/06 01:18:49;;;;;;;2.20;1.48;;;;;;;10.83;56.53;99354.53;4217491;34;33182;-88
2021/05/06 01:21:22;;;;;;;1.60;1.20;;;;;;;10.56;57.82;99353.53;4202024;34;35385;-95
2021/05/06 01:24:07;;;;;;;2.00;1.10;;;;;;;10.78;57.36;99352.44;4233770;33;34105;-94
2021/05/06 01:33:28;;;;;;;2.28;1.62;;;;;;;10.64;59.73;99357.94;4225635;28;34112;-95
2021/05/06 01:36:49;;;;;;;1.70;1.58;;;;;;;10.49;60.75;99358.03;3776624;28;37487;-88
2021/05/06 01:39:53;;;;;;;2.70;1.70;;;;;;;10.47;61.15;99360.94;4237728;33;33911;-89
2021/05/06 01:42:37;;;;;;;2.45;1.92;;;;;;;10.33;61.42;99368.09;4225885;33;33755;-94
2021/05/06 01:57:27;;;;;;;2.55;1.45;;;;;;;10.55;61.12;99395.06;4180702;34;34054;-88
2021/05/06 01:57:44;;;;;;;6.30;2.20;;;;;;;10.39;61.27;99415.13;4193878;34;33200;-89
2021/05/06 02:00:58;;;;;;;8.02;2.00;;;;;;;10.13;62.28;99412.97;3644629;34;35184;-95
2021/05/06 02:04:04;;;;;;;4.10;1.62;;;;;;;10.19;62.05;99426.53;3594245;34;35257;-95
2021/05/06 02:07:02;;;;;;;3.12;2.10;;;;;;;10.57;61.54;99422.75;4213658;33;33529;-95
2021/05/06 02:09:51;;;;;;;2.87;1.95;;;;;;;10.62;60.56;99420.28;4206598;34;33796;-95
2021/05/06 02:12:26;;;;;;;5.53;2.00;;;;;;;10.56;60.44;99415.69;4214854;33;34895;-94
2021/05/06 02:15:27;;;;;;;3.65;2.62;;;;;;;10.19;61.16;99423.00;4201722;34;34886;-94
2021/05/06 02:18:36;;;;;;;;;;;;;;;10.27;60.51;99413.91;4197040;34;32594;-93
2021/05/06 02:21:18;;;;;;;6.78;1.60;;;;;;;10.14;60.97;99414.66;4206244;34;34049;-88
2021/05/06 02:23:51;;;;;;;7.03;1.80;;;;;;;10.17;60.51;99408.84;4205901;34;33711;-94
2021/05/06 02:26:24;;;;;;;2.40;1.27;;;;;;;10.25;59.39;99414.97;4195309;34;34985;-88
2021/05/06 02:28:58;;;;;;;3.28;1.65;;;;;;;9.92;59.22;99414.63;4206482;34;35246;-94
2021/05/06 02:31:33;;;;;;;5.72;1.35;;;;;;;9.97;58.99;99408.63;4194598;34;35390;-88
2021/05/06 02:34:05;;;;;;;4.97;1.75;;;;;;;9.90;58.87;99413.97;4206830;34;35058;-88
2021/05/06 02:36:37;;;;;;;2.37;1.27;;;;;;;10.02;57.36;99422.41;4206083;34;34553;-89
2021/05/06 02:39:10;;;;;;;1.62;1.40;;;;;;;9.97;58.68;99398.69;4195884;34;33651;-94
2021/05/06 02:41:42;;;;;;;4.60;1.37;;;;;;;10.35;58.27;99400.31;4205335;34;33975;-88
2021/05/06 02:44:15;;;;;;;2.92;1.10;;;;;;;10.22;56.60;99401.00;4219107;34;34691;-88
2021/05/06 02:46:48;;;;;;;5.87;1.45;;;;;;;10.47;55.61;99406.03;4217989;34;36112;-95
2021/05/06 02:50:25;;;;;;;4.57;1.60;;;;;;;10.62;54.69;99404.09;4172843;34;32831;-91
2021/05/06 02:53:04;;;;;;;3.53;1.42;;;;;;;10.71;55.96;99394.78;4146474;34;32680;-89
2021/05/06 02:55:43;;;;;;;0.93;0.88;;;;;;;10.55;54.23;99405.87;4205805;34;33401;-89
2021/05/06 03:03:43;;;;;;;2.92;0.90;;;;;;;10.64;54.04;99409.28;4190161;34;34602;-88
2021/05/06 03:06:21;;;;;;;1.55;0.70;;;;;;;10.87;51.84;99414.47;4157560;34;36951;-88
2021/05/06 03:08:58;;;;;;;2.05;1.00;;;;;;;10.74;52.29;99421.44;4188837;34;34741;-95
2021/05/06 03:22:49;;;;;;;3.12;1.05;;;;;;;10.79;52.57;99450.56;4169654;34;35121;-94
2021/05/06 03:25:22;;;;;;;1.92;1.02;;;;;;;10.63;50.13;99462.50;4178612;34;34154;-89
2021/05/06 03:28:00;;;;;;;2.75;1.12;;;;;;;10.43;51.37;99481.22;4191235;34;33663;-87
2021/05/06 03:42:17;;;;;;;1.95;1.00;;;;;;;10.30;52.85;99535.94;4170997;34;33049;-88
2021/05/06 03:45:26;;;;;;;6.57;1.30;;;;;;;10.17;53.98;99523.09;4205117;34;33004;-88
2021/05/06 04:29:37;;;;;;;1.92;0.82;;;;;;;10.85;53.26;99567.91;4185767;34;35997;-95
2021/05/06 04:37:31;;;;;;;5.60;0.90;;;;;;;10.55;54.59;99581.53;4202436;33;33897;-95
2021/05/06 04:55:28;;;;;;;2.40;1.27;;;;;;;10.75;53.94;99573.66;4192785;34;34723;-87
2021/05/06 05:06:25;;;;;;;2.55;1.10;;;;;;;10.60;54.80;99571.84;4193780;34;31635;-94
2021/05/06 05:09:13;;;;;;;3.83;1.25;;;;;;;10.67;55.26;99577.28;4193518;34;34577;-93
2021/05/06 05:12:05;;;;;;;3.05;1.33;;;;;;;10.52;54.95;99581.91;4194878;34;34331;-88
2021/05/06 05:20:37;;;;;;;8.65;1.80;;;;;;;10.75;54.42;99590.69;4215947;34;34753;-86
2021/05/06 05:26:16;;;;;;;2.37;1.15;;;;;;;10.99;52.22;99585.09;4215279;33;33791;-93
2021/05/06 05:28:49;;;;;;;7.35;1.52;;;;;;;10.52;53.56;99584.63;4234408;33;33900;-93
2021/05/06 05:31:22;;;;;;;1.42;1.10;;;;;;;10.67;54.48;99593.50;4234988;33;34687;-92
2021/05/06 05:34:06;;;;;;;6.12;1.60;;;;;;;10.47;53.76;99598.72;4247978;33;33658;-94
2021/05/06 05:36:54;;;;;;;1.33;1.02;;;;;;;10.40;54.57;99597.78;4201193;33;34155;-92
2021/05/06 05:39:38;;;;;;;3.75;1.58;;;;;;;10.30;53.89;99600.78;4204703;33;33563;-93
2021/05/06 05:56:19;;;;;;;3.58;1.00;;;;;;;11.27;50.82;99604.06;4217741;33;34368;-87
2021/05/06 05:58:54;;;;;;;3.05;1.48;;;;;;;11.56;50.70;99608.47;4224973;33;33512;-87
2021/05/06 06:01:28;;;;;;;3.45;1.15;;;;;;;11.05;50.36;99623.03;4209435;33;34251;-85
2021/05/06 06:04:00;;;;;;;4.85;1.30;;;;;;;11.16;50.34;99618.13;4217889;33;33640;-86
2021/05/06 06:06:33;;;;;;;5.28;1.10;;;;;;;11.30;50.14;99619.91;4225975;33;33644;-86
2021/05/06 06:09:05;;;;;;;3.83;1.10;;;;;;;11.53;51.97;99613.44;4232208;33;33497;-87
2021/05/06 06:11:38;;;;;;;2.42;1.25;;;;;;;11.48;49.87;99619.44;4231947;33;33953;-87
2021/05/06 06:14:11;;;;;;;2.60;0.90;;;;;;;11.64;50.25;99616.41;4218221;33;34194;-87
2021/05/06 06:16:46;;;;;;;6.22;1.23;;;;;;;11.83;50.51;99616.78;4216541;33;34304;-92
2021/05/06 06:19:23;;;;;;;3.25;1.12;;;;;;;11.92;49.39;99622.88;4227595;33;34216;-87
2021/05/06 06:22:02;;;;;;;4.18;1.08;;;;;;;11.81;48.89;99616.12;4227744;33;32840;-88
2021/05/06 06:24:35;;;;;;;1.03;0.87;;;;;;;12.10;50.23;99616.97;4219656;33;34709;-87
2021/05/06 06:27:07;;;;;;;1.85;1.20;;;;;;;12.41;48.22;99618.34;4233534;33;33844;-87
2021/05/06 06:29:40;;;;;;;1.98;0.85;;;;;;;12.19;47.84;99608.44;4240731;33;34052;-87
2021/05/06 06:32:15;;;;;;;4.12;1.25;;;;;;;12.16;49.00;99608.84;4239060;33;33706;-87
2021/05/06 06:34:47;;;;;;;2.58;1.12;;;;;;;12.11;48.90;99605.06;4235623;33;33684;-87
2021/05/06 06:37:20;;;;;;;1.90;1.17;;;;;;;12.36;48.60;99608.09;4235413;33;34120;-87
2021/05/06 06:39:53;;;;;;;2.50;1.10;;;;;;;12.09;48.40;99612.56;4232996;33;34967;-88
2021/05/06 06:42:27;;;;;;;1.12;1.00;;;;;;;12.47;48.15;99604.81;4213080;33;32992;-94
2021/05/06 06:45:00;;;;;;;1.55;1.08;;;;;;;12.37;50.06;99609.78;4225975;33;33590;-87
2021/05/06 06:47:32;;;;;;;4.65;1.37;;;;;;;12.81;49.15;99604.91;4238294;33;33846;-88
2021/05/06 06:50:08;;;;;;;2.33;0.75;;;;;;;12.85;47.23;99598.88;4234566;33;33503;-88
2021/05/06 06:52:41;;;;;;;2.72;0.70;;;;;;;12.84;47.63;99593.66;4224637;33;32704;-88
2021/05/06 06:55:15;;;;;;;2.20;1.08;;;;;;;12.62;44.21;99601.09;4220563;33;34821;-88
2021/05/06 06:57:47;;;;;;;1.30;0.65;;;;;;;12.36;44.46;99599.97;4225848;33;34513;-89
2021/05/06 07:00:20;;;;;;;2.65;1.05;;;;;;;12.46;45.05;99602.31;4211319;33;34701;-88
2021/05/06 07:02:52;;;;;;;2.70;0.77;;;;;;;12.54;46.80;99599.41;4222189;33;33910;-86
2021/05/06 07:05:24;;;;;;;2.53;0.90;;;;;;;12.63;44.14;99594.66;4225412;33;33716;-88
2021/05/06 07:08:15;;;;;;;1.60;0.73;;;;;;;12.80;43.88;99598.66;4218136;33;35463;-88
2021/05/06 07:10:57;;;;;;;1.73;1.05;;;;;;;12.54;44.20;99604.84;4224023;33;34134;-93
2021/05/06 07:13:31;;;;;;;2.17;0.90;;;;;;;12.62;43.91;99609.22;4214836;33;33213;-87
2021/05/06 07:16:05;;;;;;;2.17;0.80;;;;;;;12.85;44.55;99604.28;4226732;33;34453;-87
2021/05/06 07:18:41;;;;;;;1.17;0.88;;;;;;;12.96;44.45;99599.31;4213070;33;34328;-90
2021/05/06 07:21:14;;;;;;;2.47;0.80;;;;;;;12.67;44.91;99604.03;4225494;33;35425;-86
2021/05/06 07:23:45;;;;;;;2.92;1.35;;;;;;;12.93;42.96;99602.44;4225704;33;33693;-86
2021/05/06 07:26:19;;;;;;;5.03;0.80;;;;;;;12.94;44.29;99609.53;4231688;33;33630;-87
2021/05/06 07:28:53;;;;;;;1.20;0.90;;;;;;;12.76;43.63;99618.25;4210278;33;33363;-88
2021/05/06 07:31:25;;;;;;;1.80;1.12;;;;;;;13.11;43.90;99624.34;4206631;33;33232;-87
2021/05/06 07:33:58;;;;;;;3.25;1.55;;;;;;;13.13;43.50;99621.44;4231078;33;33228;-89
2021/05/06 07:36:30;;;;;;;2.87;1.00;;;;;;;13.11;44.64;99618.94;4233881;33;34696;-87
2021/05/06 07:39:03;;;;;;;4.45;1.52;;;;;;;12.61;45.90;99613.00;4203078;33;34636;-87
2021/05/06 07:41:38;;;;;;;5.47;1.45;;;;;;;12.32;47.38;99614.97;4234311;33;33509;-86
2021/05/06 07:44:11;;;;;;;4.40;1.52;;;;;;;12.65;47.39;99623.22;4221389;33;33587;-86
2021/05/06 07:46:43;;;;;;;2.85;1.45;;;;;;;12.56;46.42;99612.75;4213907;33;35047;-87
2021/05/06 07:49:16;;;;;;;4.55;1.48;;;;;;;12.37;45.37;99626.03;4226478;33;34454;-87
2021/05/06 07:51:49;;;;;;;6.95;1.80;;;;;;;12.17;44.91;99624.09;4234762;33;33783;-87
2021/05/06 07:54:21;;;;;;;2.03;1.40;;;;;;;12.39;44.56;99629.38;4230625;33;33249;-87
2021/05/06 07:56:54;;;;;;;7.07;1.52;;;;;;;12.66;45.68;99624.06;4239924;33;33471;-86
2021/05/06 07:59:26;;;;;;;3.33;1.27;;;;;;;12.57;46.74;99628.81;4218779;33;35261;-86
2021/05/06 08:02:00;;;;;;;3.35;1.52;;;;;;;12.49;44.34;99629.84;4235207;33;33465;-85
2021/05/06 08:04:32;;;;;;;1.62;1.10;;;;;;;12.84;45.25;99627.03;4228785;33;33156;-85
2021/05/06 08:07:05;;;;;;;6.07;1.27;;;;;;;12.90;42.45;99625.38;4239596;33;35047;-87
2021/05/06 08:09:38;;;;;;;2.35;1.40;;;;;;;13.11;44.98;99632.50;4223557;33;34551;-86
2021/05/06 08:12:12;;;;;;;4.22;1.27;;;;;;;13.37;46.42;99634.44;4213010;33;33859;-87
2021/05/06 08:14:45;;;;;;;2.62;1.65;;;;;;;13.67;44.33;99633.19;4211955;33;34300;-86
2021/05/06 08:17:17;;;;;;;3.17;1.35;;;;;;;13.60;42.09;99631.28;4209466;33;33883;-86
2021/05/06 08:19:52;;;;;;;1.85;1.30;;;;;;;13.50;40.77;99632.75;4217859;33;32897;-86
2021/05/06 08:22:27;;;;;;;2.97;1.45;;;;;;;13.63;41.57;99631.94;4238232;33;33344;-86
2021/05/06 08:25:03;;;;;;;2.62;1.77;;;;;;;13.92;41.89;99630.63;4232219;33;33446;-96
2021/05/06 08:27:46;;;;;;;2.62;1.50;;;;;;;14.17;43.21;99611.75;4214036;33;33488;-87
2021/05/06 08:30:19;;;;;;;3.45;1.33;;;;;;;14.44;42.95;99622.53;4235225;33;34498;-87
2021/05/06 08:32:51;;;;;;;3.90;1.52;;;;;;;14.47;43.94;99622.09;4239042;33;34094;-88
2021/05/06 08:35:25;;;;;;;4.35;2.17;;;;;;;15.00;42.12;99623.75;4238775;33;34170;-86
2021/05/06 08:37:57;;;;;;;4.62;1.20;;;;;;;14.28;43.94;99619.25;4229541;33;34695;-87
2021/05/06 08:40:30;;;;;;;3.95;1.48;;;;;;;14.09;44.11;99612.81;4222930;33;34701;-87
2021/05/06 08:43:09;;;;;;;4.72;1.55;;;;;;;14.19;46.05;99614.25;4215280;33;34038;-94
2021/05/06 08:45:49;;;;;;;2.53;1.27;;;;;;;14.74;45.91;99614.66;4234079;33;34260;-88
2021/05/06 08:48:27;;;;;;;1.08;0.95;;;;;;;15.40;44.98;99614.44;4238429;33;33575;-87
2021/05/06 08:51:04;;;;;;;1.65;1.20;;;;;;;16.15;43.00;99608.94;4225089;33;34194;-92
2021/05/06 08:53:39;;;;;;;;;;;;;;;15.62;37.18;99628.50;4214342;34;33259;-96
2021/05/06 08:56:26;;;;;;;2.45;0.70;;;;;;;15.32;37.82;99621.00;4221030;33;32305;-96
2021/05/06 08:59:17;;;;;;;0.77;0.47;;;;;;;15.24;38.77;99613.94;4185909;34;32781;-96
2021/05/06 09:01:53;;;;;;;1.02;0.50;;;;;;;15.42;37.45;99623.22;4182788;34;32889;-96
2021/05/06 09:04:30;;;;;;;5.78;0.85;;;;;;;15.24;38.32;99619.37;4186453;34;34142;-88
2021/05/06 09:07:04;;;;;;;1.65;0.80;;;;;;;15.52;40.32;99616.22;4202964;34;33478;-87
2021/05/06 09:09:48;;;;;;;1.58;0.60;;;;;;;16.10;40.94;99613.37;4200508;34;34410;-88
2021/05/06 09:12:36;;;;;;;3.25;1.10;;;;;;;16.80;41.30;99617.56;4209481;34;31899;-87
2021/05/06 09:15:16;;;;;;;2.62;0.90;;;;;;;17.23;38.78;99616.50;4201488;34;33515;-87
2021/05/06 09:17:48;;;;;;;3.55;1.00;;;;;;;17.40;37.03;99622.13;4203718;34;34132;-96
2021/05/06 09:20:41;;;;;;;4.25;1.50;;;;;;;17.49;37.10;99606.25;4318404;28;34206;31
2021/05/06 09:23:15;;;;;;;2.20;1.17;;;;;;;17.63;35.88;99605.78;4207607;33;35478;-96
2021/05/06 09:25:47;;;;;;;2.12;0.85;;;;;;;18.50;33.86;99612.34;4201796;33;34317;-86
2021/05/06 09:28:21;;;;;;;2.17;1.08;;;;;;;18.24;36.01;99616.44;4227669;33;33224;-96
2021/05/06 09:30:58;;;;;;;3.20;0.95;;;;;;;17.87;35.99;99613.13;4204522;33;34822;-96
2021/05/06 09:33:35;;;;;;;1.58;1.08;;;;;;;18.65;35.91;99619.16;4202873;33;34760;-86
2021/05/06 09:36:10;;;;;;;0.68;0.52;;;;;;;19.10;38.95;99615.69;4224034;33;34151;-87
2021/05/06 09:38:51;;;;;;;1.73;0.80;;;;;;;19.76;34.58;99610.44;4232455;33;33911;-89
2021/05/06 09:41:29;;;;;;;1.27;0.73;;;;;;;19.53;31.06;99627.87;4202814;33;34426;-96
2021/05/06 09:44:13;;;;;;;1.45;0.70;;;;;;;19.04;32.44;99628.44;4200286;33;33977;-96
2021/05/06 09:50:25;;;;;;;3.30;0.82;;;;;;;18.89;35.18;99617.19;4199647;33;36964;-96
2021/05/06 09:52:58;;;;;;;1.70;0.77;;;;;;;18.93;33.04;99623.03;4209071;33;34094;-96
2021/05/06 09:55:33;;;;;;;2.37;1.00;;;;;;;18.11;34.37;99630.38;4209002;33;34685;-96
2021/05/06 09:58:31;;;;;;;1.15;0.70;;;;;;;18.15;35.38;99621.44;4196753;33;35301;-95
2021/05/06 10:01:11;;;;;;;4.93;1.23;;;;;;;18.52;34.77;99626.59;4211428;33;34006;-96
2021/05/06 10:03:45;;;;;;;4.75;1.05;;;;;;;18.18;35.43;99625.59;4202182;33;32409;-96
2021/05/06 10:06:21;;;;;;;3.30;1.10;;;;;;;17.22;37.07;99644.91;4208677;33;35206;-96
2021/05/06 10:09:01;;;;;;;3.65;0.95;;;;;;;17.04;36.47;99652.06;4218963;28;35027;-96
2021/05/06 10:11:34;;;;;;;2.50;1.02;;;;;;;16.40;35.93;99654.34;4248019;33;33374;-95
2021/05/06 10:14:09;;;;;;;1.55;0.75;;;;;;;15.80;36.81;99655.81;4273055;28;32837;-89
2021/05/06 10:16:41;;;;;;;1.80;0.70;;;;;;;15.76;38.60;99654.56;4215639;33;31665;-93
2021/05/06 10:19:16;;;;;;;1.90;1.20;;;;;;;14.92;38.15;99643.03;4217625;33;33671;-87
2021/05/06 10:21:49;;;;;;;2.97;1.50;;;;;;;14.88;40.18;99645.38;4232922;33;33334;-93
2021/05/06 10:24:22;;;;;;;3.75;1.33;;;;;;;15.63;37.99;99641.91;4241618;33;33344;-92
2021/05/06 10:26:54;;;;;;;3.30;1.85;;;;;;;15.16;38.30;99634.09;4214879;33;33698;-86
2021/05/06 10:29:28;;;;;;;3.75;1.08;;;;;;;15.30;39.81;99636.69;4214068;33;33603;-91
2021/05/06 10:32:03;;;;;;;2.20;1.37;;;;;;;16.10;38.50;99627.84;4227088;33;33245;-91
2021/05/06 10:34:38;;;;;;;4.47;1.45;;;;;;;15.31;38.51;99628.34;4227284;33;33144;-91
2021/05/06 10:37:11;;;;;;;2.37;0.90;;;;;;;14.71;39.95;99622.44;4211530;33;34811;-93
2021/05/06 10:39:52;;;;;;;2.67;0.90;;;;;;;15.09;38.78;99618.84;4223624;33;33292;-93
2021/05/06 10:42:29;;;;;;;5.32;1.50;;;;;;;15.73;37.80;99614.13;4223803;33;35539;-92
2021/05/06 10:45:16;;;;;;;1.90;1.00;;;;;;;15.54;37.75;99618.72;4226287;33;33387;-91
2021/05/06 10:47:55;;;;;;;2.28;0.80;;;;;;;15.84;37.74;99621.63;4225330;33;33671;-87
2021/05/06 10:50:39;;;;;;;2.80;0.80;;;;;;;16.03;37.46;99616.16;4242069;33;33793;-92
2021/05/06 10:53:33;;;;;;;2.37;0.98;;;;;;;15.38;39.79;99622.00;4229356;33;34916;-94
2021/05/06 10:56:17;;;;;;;2.47;1.15;;;;;;;14.56;41.02;99615.34;4216786;33;33575;-88
2021/05/06 10:58:49;;;;;;;2.58;1.83;;;;;;;15.64;40.41;99619.06;4206210;33;32983;-86
2021/05/06 11:01:22;;;;;;;3.75;1.08;;;;;;;15.92;39.32;99625.94;4228449;33;34575;-91
2021/05/06 11:04:05;;;;;;;1.35;1.00;;;;;;;15.48;40.40;99634.06;4218358;33;32822;-87
2021/05/06 11:06:42;;;;;;;1.95;0.80;;;;;;;15.65;40.05;99628.88;4223078;33;32833;-87
2021/05/06 11:09:36;;;;;;;1.20;0.80;;;;;;;15.75;39.36;99608.47;4232254;33;33697;-96
2021/05/06 11:12:15;;;;;;;1.83;0.70;;;;;;;15.97;38.14;99617.06;4241237;33;33505;-85
2021/05/06 11:15:03;;;;;;;2.33;0.80;;;;;;;15.56;39.97;99626.69;4243116;33;33157;-90
2021/05/06 11:17:39;;;;;;;5.93;1.10;;;;;;;15.17;39.83;99637.66;4245049;33;33649;-86
2021/05/06 11:20:14;;;;;;;3.58;1.02;;;;;;;15.18;39.07;99645.59;4245672;33;33692;-86
2021/05/06 11:22:50;;;;;;;1.17;0.70;;;;;;;15.23;40.40;99628.59;4240632;33;34404;-86
2021/05/06 11:25:32;;;;;;;1.48;0.85;;;;;;;15.54;38.76;99621.44;4255190;33;33266;-92
2021/05/06 11:28:31;;;;;;;2.58;1.10;;;;;;;15.79;38.41;99612.44;4235338;33;34802;-87
2021/05/06 11:31:04;;;;;;;1.62;0.70;;;;;;;15.68;38.54;99609.34;4257726;33;33898;-86
2021/05/06 11:33:37;;;;;;;4.22;0.90;;;;;;;15.91;39.25;99609.81;4243733;33;34152;-86
2021/05/06 11:36:10;;;;;;;1.05;0.70;;;;;;;16.38;37.63;99601.94;4246665;33;33184;-87
2021/05/06 11:38:53;;;;;;;2.58;1.00;;;;;;;16.77;37.27;99610.66;4242557;33;33760;-87
2021/05/06 11:41:36;;;;;;;1.87;1.00;;;;;;;16.41;37.01;99606.94;4260938;33;33797;-93
2021/05/06 11:44:23;;;;;;;0.73;0.65;;;;;;;17.27;36.43;99598.59;4250088;33;34005;-86
2021/05/06 11:46:57;;;;;;;3.33;1.33;;;;;;;17.37;35.02;99617.97;4237182;33;33379;-86
2021/05/06 11:49:30;;;;;;;2.65;1.08;;;;;;;17.04;36.86;99602.13;4259238;33;33604;-86
2021/05/06 11:52:05;;;;;;;1.40;0.77;;;;;;;17.52;34.87;99584.72;4260175;33;33846;-96
2021/05/06 11:54:38;;;;;;;2.70;1.10;;;;;;;17.44;36.35;99585.06;4259824;33;33857;-86
2021/05/06 11:57:22;;;;;;;7.40;1.30;;;;;;;17.12;39.55;99572.59;4259967;33;33813;-92
2021/05/06 11:59:54;;;;;;;3.25;1.20;;;;;;;17.62;39.02;99579.50;4247650;33;34596;-87
2021/05/06 12:02:31;;;;;;;5.37;1.25;;;;;;;16.44;41.44;99584.66;4235529;33;34546;-96
2021/05/06 12:05:07;;;;;;;2.58;1.40;;;;;;;16.71;40.56;99581.56;4258935;33;33746;-96
2021/05/06 12:07:42;;;;;;;2.85;1.02;;;;;;;16.71;40.14;99574.22;4246236;33;34082;-93
2021/05/06 12:10:16;;;;;;;2.35;1.17;;;;;;;15.86;41.44;99583.22;4258558;33;33310;-90
2021/05/06 12:13:01;;;;;;;4.93;1.27;;;;;;;15.30;43.49;99588.53;4247161;33;35027;-90
2021/05/06 12:15:34;;;;;;;4.25;1.30;;;;;;;15.99;42.66;99571.38;4259423;33;33607;-89
2021/05/06 12:18:20;;;;;;;3.67;1.45;;;;;;;15.95;40.64;99587.31;4246442;33;33211;-89
2021/05/06 12:20:56;;;;;;;3.00;1.48;;;;;;;15.80;40.65;99584.13;4247400;33;34475;-90
2021/05/06 12:23:31;;;;;;;2.90;1.37;;;;;;;14.83;42.82;99596.22;4247104;33;34662;-92
2021/05/06 12:26:16;;;;;;;1.55;1.30;;;;;;;14.56;44.69;99596.31;4249170;33;32807;-93
2021/05/06 12:28:53;;;;;;;2.30;1.67;;;;;;;14.36;45.57;99593.72;4230168;33;32213;-93
2021/05/06 12:31:44;;;;;;;2.03;1.30;;;;;;;14.06;45.10;99585.25;4236738;33;33235;-94
2021/05/06 12:34:31;;;;;;;1.70;1.37;;;;;;;14.58;43.05;99572.47;4247849;33;33990;-95
2021/05/06 12:37:44;;;;;;;2.65;1.27;;;;;;;16.07;41.14;99573.78;4214602;34;33855;-90
2021/05/06 12:40:28;;;;;;;5.47;1.60;;;;;;;16.16;41.06;99574.31;4204317;33;33517;-95
2021/05/06 12:43:29;;;;;;;2.65;1.48;;;;;;;16.48;40.49;99569.50;4172734;34;33621;-90
2021/05/06 12:49:24;;;;;;;2.05;1.10;;;;;;;16.46;40.50;99565.34;4202862;34;34143;-96
2021/05/06 12:56:28;;;;;;;6.53;1.48;;;;;;;15.68;42.04;99554.06;4549066;28;20129;31
2021/05/06 12:59:28;;;;;;;3.83;1.40;;;;;;;17.19;40.03;99545.16;4153069;34;34014;-95
2021/05/06 13:02:14;;;;;;;2.28;1.10;;;;;;;14.57;44.13;99559.09;4179275;34;33764;-94
2021/05/06 13:05:53;;;;;;;2.58;1.35;;;;;;;15.12;42.59;99561.25;4554942;28;35003;-96
2021/05/06 13:09:07;;;;;;;2.47;1.20;;;;;;;15.85;42.22;99546.13;4250807;28;34246;-95
2021/05/06 13:12:25;;;;;;;5.62;1.37;;;;;;;15.34;41.06;99543.50;4246905;33;34765;-86
2021/05/06 13:15:25;;;;;;;3.55;1.17;;;;;;;15.00;41.97;99544.81;4599089;28;34358;-88
2021/05/06 13:22:44;;;;;;;1.70;1.30;;;;;;;15.27;42.32;99520.94;4265930;33;33328;-94
2021/05/06 13:30:01;;;;;;;6.37;2.08;;;;;;;15.74;40.85;99515.00;4501337;28;20130;-96
2021/05/06 13:33:19;;;;;;;1.58;1.10;;;;;;;14.56;41.02;99536.50;4358093;28;20177;-86
2021/05/06 13:36:21;;;;;;;3.10;1.48;;;;;;;16.10;38.29;99509.78;4223743;33;33282;-96
2021/05/06 13:39:02;;;;;;;4.35;1.42;;;;;;;17.58;36.64;99504.53;4221866;33;33584;-89
2021/05/06 13:41:48;;;;;;;3.70;0.80;;;;;;;17.74;35.42;99508.44;4216461;33;34097;-89
2021/05/06 13:44:26;;;;;;;2.83;1.10;;;;;;;16.45;36.86;99499.00;4217229;33;34908;-85
2021/05/06 13:47:02;;;;;;;1.20;0.90;;;;;;;17.43;36.02;99498.75;4215681;33;33651;-86
2021/05/06 13:49:35;;;;;;;1.55;0.90;;;;;;;18.18;34.94;99495.16;4216184;33;33806;-86
2021/05/06 13:52:07;;;;;;;2.55;1.15;;;;;;;19.10;34.23;99488.84;4204795;33;35361;-87
2021/05/06 13:54:40;;;;;;;3.42;0.93;;;;;;;20.13;30.33;99479.31;4215671;33;32931;-86
2021/05/06 13:57:13;;;;;;;2.47;1.30;;;;;;;19.63;32.87;99498.41;4215001;33;33531;-90
2021/05/06 13:59:46;;;;;;;3.83;1.02;;;;;;;19.89;31.09;99485.88;4217255;33;33959;-94
2021/05/06 14:02:20;;;;;;;3.12;1.42;;;;;;;19.00;31.68;99506.78;4215080;33;33667;-87
2021/05/06 14:04:55;;;;;;;5.55;1.00;;;;;;;17.71;33.55;99503.47;4227394;33;32893;-93
2021/05/06 14:07:27;;;;;;;1.62;1.00;;;;;;;16.48;35.62;99514.09;4217962;33;33872;-89
2021/05/06 14:10:00;;;;;;;5.62;1.17;;;;;;;16.00;36.88;99508.44;4229099;33;33813;-92
2021/05/06 14:12:33;;;;;;;1.60;1.00;;;;;;;15.80;37.19;99507.84;4196946;33;32867;-88
2021/05/06 14:15:06;;;;;;;4.22;1.33;;;;;;;16.86;35.40;99491.09;4225890;33;33750;-87
2021/05/06 14:17:39;;;;;;;2.42;0.70;;;;;;;17.93;34.69;99481.78;4213063;33;32330;-87
2021/05/06 14:20:12;;;;;;;5.72;1.05;;;;;;;18.45;33.36;99478.16;4226690;33;33807;-92
2021/05/06 14:22:44;;;;;;;2.42;1.02;;;;;;;19.75;32.21;99488.16;4226624;33;34520;-90
2021/05/06 14:25:24;;;;;;;0.75;0.70;;;;;;;19.50;30.96;99471.34;4208977;33;33142;-95
2021/05/06 14:28:05;;;;;;;2.62;1.08;;;;;;;18.15;31.55;99473.75;4215494;33;34550;-87
2021/05/06 14:30:39;;;;;;;2.42;1.40;;;;;;;18.40;29.66;99458.06;4208640;33;34426;-94
2021/05/06 14:33:11;;;;;;;1.90;0.80;;;;;;;18.44;30.17;99464.72;4205232;34;35291;-87
2021/05/06 14:35:46;;;;;;;2.12;0.85;;;;;;;18.22;31.43;99461.84;4221863;33;34324;-92
2021/05/06 14:38:31;;;;;;;2.90;0.93;;;;;;;17.09;32.59;99457.53;4205338;33;33402;-95
2021/05/06 14:41:05;;;;;;;3.28;0.90;;;;;;;17.34;33.63;99451.00;4200426;33;33341;-86
2021/05/06 14:43:38;;;;;;;2.00;0.90;;;;;;;17.33;33.84;99446.59;4220243;33;33680;-91
2021/05/06 14:46:11;;;;;;;2.05;1.15;;;;;;;17.69;33.13;99445.47;4202244;34;33274;-86
2021/05/06 14:48:46;;;;;;;3.62;1.35;;;;;;;17.38;33.83;99453.03;4210031;33;34188;-94
2021/05/06 14:51:23;;;;;;;1.75;1.00;;;;;;;17.87;33.56;99449.09;4209788;33;34614;-94
2021/05/06 14:54:29;;;;;;;2.20;0.80;;;;;;;17.47;32.55;99440.66;4200381;34;35090;-96
2021/05/06 14:57:49;;;;;;;2.58;1.12;;;;;;;16.96;33.09;99439.50;4260912;28;32627;-96
2021/05/06 15:00:33;;;;;;;3.47;1.10;;;;;;;17.19;34.20;99426.91;4179584;34;33777;-94
2021/05/06 15:03:26;;;;;;;3.37;1.10;;;;;;;18.29;31.32;99429.69;4184533;29;35362;-96
2021/05/06 15:05:59;;;;;;;3.00;1.00;;;;;;;19.83;28.75;99421.09;4155944;34;34019;-96
2021/05/06 15:08:41;;;;;;;4.53;1.25;;;;;;;21.14;27.74;99412.69;4148253;34;32108;-96
2021/05/06 15:11:17;;;;;;;2.67;1.20;;;;;;;20.67;26.79;99434.59;4155786;34;35176;-96
2021/05/06 15:13:52;;;;;;;2.20;0.88;;;;;;;19.15;29.74;99421.28;4190281;34;34228;-94
2021/05/06 15:16:39;;;;;;;3.17;0.90;;;;;;;18.87;30.92;99409.34;4156817;34;32795;-96
2021/05/06 15:19:20;;;;;;;2.92;1.20;;;;;;;20.06;30.07;99402.69;4372293;28;34281;31
2021/05/06 15:22:24;;;;;;;6.90;1.20;;;;;;;19.27;29.98;99401.19;4319463;28;33234;-89
2021/05/06 15:26:02;;;;;;;1.90;1.12;;;;;;;18.34;31.02;99400.53;3963416;28;20766;-95
2021/05/06 15:28:35;;;;;;;4.40;1.70;;;;;;;17.51;33.08;99393.72;4178558;34;34305;-96
2021/05/06 15:31:20;;;;;;;2.30;1.45;;;;;;;17.01;34.42;99395.94;4172025;34;34014;-95
2021/05/06 15:33:52;;;;;;;1.75;1.10;;;;;;;17.27;34.13;99391.03;4187750;34;34887;-96
2021/05/06 15:36:40;;;;;;;4.03;1.25;;;;;;;17.53;33.79;99388.84;4190768;28;34295;-90
2021/05/06 15:39:20;;;;;;;2.58;1.10;;;;;;;17.56;33.74;99377.44;4172315;34;33824;-96
2021/05/06 15:41:59;;;;;;;5.35;1.50;;;;;;;18.35;32.52;99383.06;4195216;34;33894;-96
2021/05/06 15:44:40;;;;;;;5.60;1.37;;;;;;;18.39;32.48;99375.19;4185705;34;34217;-88
2021/05/06 15:47:16;;;;;;;2.53;1.23;;;;;;;18.62;31.67;99363.25;4182620;34;32621;-96
2021/05/06 15:50:13;;;;;;;3.87;1.30;;;;;;;18.64;31.37;99349.31;4180421;34;35584;-96
2021/05/06 15:53:15;;;;;;;3.28;1.27;;;;;;;18.88;31.32;99350.78;4194187;34;35778;-96
2021/05/06 15:56:06;;;;;;;4.60;1.23;;;;;;;17.97;32.58;99351.75;4250677;28;34518;-96
2021/05/06 15:58:45;;;;;;;5.05;1.45;;;;;;;18.94;31.31;99339.94;4234238;33;33540;-95
2021/05/06 16:01:20;;;;;;;5.85;1.02;;;;;;;19.04;30.85;99331.84;4218029;33;34176;-96
2021/05/06 16:04:11;;;;;;;2.17;1.02;;;;;;;18.60;31.83;99348.16;4206877;33;32709;-96
2021/05/06 16:06:43;;;;;;;2.37;1.02;;;;;;;18.24;32.54;99350.31;4216691;33;33543;-96
2021/05/06 16:09:17;;;;;;;2.87;1.00;;;;;;;18.33;30.96;99332.41;4206614;33;34251;-96